GQPA/ATR METAR and TAF weather

Enter ICAO airport designator
Station Type Date Time Source
GQPA METAR 2020/04/05 09:00 UTC NOAA

GQPA 050900Z 04016KT 360V080 8000 NSC 25/02 Q1017


Station Type Date Time Source
GQPA Decoded METAR 2020/04/05 09:00 UTC NOAA

Atar, Mauritania (GQPA) 20-31N 013-04W 224M
Apr 05, 2020 - 05:00 AM EDT / 2020.04.05 0900 UTC
Wind: from the NE (040 degrees) at 18 MPH (16 KT) (direction variable):0
Visibility: 4 mile(s):0
Temperature: 77 F (25 C)
Dew Point: 35 F (2 C)
Relative Humidity: 22%
Pressure (altimeter): 30.03 in. Hg (1017 hPa)
ob: GQPA 050900Z 04016KT 360V080 8000 NSC 25/02 Q1017
cycle: 9

Station Type Date Time Source
GQPA TAF UTC NOAA

Error!

Example: see airport list